createdAt,value
2023-03-05T00:01:39.937Z,2.67
2023-03-05T00:04:13.941Z,2.64
2023-03-05T00:06:43.963Z,2.65
2023-03-05T00:09:14.703Z,2.68
2023-03-05T00:11:41.349Z,2.65
2023-03-05T00:14:09.145Z,2.65
2023-03-05T00:16:36.146Z,2.75
2023-03-05T00:19:06.128Z,2.81
2023-03-05T00:21:38.605Z,2.69
2023-03-05T00:24:08.569Z,2.57
2023-03-05T00:26:40.773Z,2.50
2023-03-05T00:29:12.928Z,2.49
2023-03-05T00:31:40.553Z,2.49
2023-03-05T00:34:15.373Z,2.42
2023-03-05T00:36:47.554Z,2.30
2023-03-05T00:39:14.629Z,2.11
2023-03-05T00:41:41.629Z,2.03
2023-03-05T00:44:08.840Z,2.00
2023-03-05T00:46:40.350Z,1.97
2023-03-05T00:49:07.958Z,1.84
2023-03-05T00:51:37.968Z,1.82
2023-03-05T00:54:08.527Z,1.83
2023-03-05T00:56:35.207Z,1.69
2023-03-05T00:59:07.307Z,1.69
2023-03-05T01:01:36.973Z,1.70
2023-03-05T01:04:03.703Z,1.75
2023-03-05T01:06:43.354Z,1.71
2023-03-05T01:09:12.967Z,1.61
2023-03-05T01:11:42.841Z,1.66
2023-03-05T01:14:12.055Z,1.57
2023-03-05T01:16:46.457Z,1.55
2023-03-05T01:19:16.592Z,1.58
2023-03-05T01:21:49.152Z,1.56
2023-03-05T01:24:15.728Z,1.59
2023-03-05T01:26:45.366Z,1.56
2023-03-05T01:29:12.488Z,1.71
2023-03-05T01:31:39.244Z,1.69
2023-03-05T01:34:06.464Z,1.65
2023-03-05T01:36:33.438Z,1.68
2023-03-05T01:39:00.120Z,1.63
2023-03-05T01:41:36.402Z,1.69
2023-03-05T01:44:05.312Z,1.76
2023-03-05T01:46:44.999Z,1.81
2023-03-05T01:49:17.682Z,1.78
2023-03-05T01:52:02.317Z,1.75
2023-03-05T01:54:34.328Z,1.77
2023-03-05T01:57:08.483Z,1.76
2023-03-05T01:59:37.236Z,1.78
2023-03-05T02:02:11.267Z,1.82
2023-03-05T02:04:54.899Z,1.78
2023-03-05T02:07:30.846Z,1.73
2023-03-05T02:09:57.475Z,1.80
2023-03-05T02:12:24.276Z,1.74
2023-03-05T02:14:59.143Z,1.72
2023-03-05T02:17:29.088Z,1.78
2023-03-05T02:20:05.636Z,1.67
2023-03-05T02:22:32.366Z,1.71
2023-03-05T02:25:04.779Z,1.75
2023-03-05T02:27:35.727Z,1.77
2023-03-05T02:30:03.532Z,1.68
2023-03-05T02:32:30.141Z,1.59
2023-03-05T02:34:56.778Z,1.52
2023-03-05T02:37:24.442Z,1.52
2023-03-05T02:39:51.660Z,1.57
2023-03-05T02:42:22.962Z,1.55
2023-03-05T02:44:49.621Z,1.52
2023-03-05T02:47:16.234Z,1.51
2023-03-05T02:49:42.928Z,1.53
2023-03-05T02:52:09.617Z,1.61
2023-03-05T02:54:36.294Z,1.56
2023-03-05T02:57:02.967Z,1.50
2023-03-05T02:59:29.706Z,1.43
2023-03-05T03:01:57.887Z,1.47
2023-03-05T03:04:26.015Z,1.45
2023-03-05T03:06:58.736Z,1.42
2023-03-05T03:09:27.362Z,1.42
2023-03-05T03:11:54.084Z,1.47
2023-03-05T03:14:21.171Z,1.45
2023-03-05T03:16:51.507Z,1.41
2023-03-05T03:19:18.157Z,1.39
2023-03-05T03:21:45.150Z,1.42
2023-03-05T03:24:12.214Z,1.36
2023-03-05T03:26:38.960Z,1.34
2023-03-05T03:29:05.549Z,1.41
2023-03-05T03:31:32.248Z,1.35
2023-03-05T03:33:58.944Z,1.30
2023-03-05T03:36:28.245Z,1.35
2023-03-05T03:38:54.881Z,1.35
2023-03-05T03:41:22.769Z,1.39
2023-03-05T03:43:52.503Z,1.36
2023-03-05T03:46:19.185Z,1.35
2023-03-05T03:48:49.579Z,1.33
2023-03-05T03:51:16.302Z,1.29
2023-03-05T03:53:42.964Z,1.28
2023-03-05T03:56:16.475Z,1.25
2023-03-05T03:58:46.504Z,1.24
2023-03-05T04:01:13.161Z,1.28
2023-03-05T04:03:48.939Z,1.25
2023-03-05T04:06:15.624Z,1.19
2023-03-05T04:08:42.281Z,1.20
2023-03-05T04:11:10.043Z,1.19
2023-03-05T04:13:36.714Z,1.22
2023-03-05T04:16:04.538Z,1.14
2023-03-05T04:18:32.619Z,1.11
2023-03-05T04:20:59.380Z,1.10
2023-03-05T04:23:35.345Z,0.98
2023-03-05T04:26:02.296Z,0.96
2023-03-05T04:28:28.941Z,0.96
2023-03-05T04:30:55.666Z,0.88
2023-03-05T04:33:22.333Z,0.85
2023-03-05T04:35:55.480Z,0.76
2023-03-05T04:38:27.634Z,0.75
2023-03-05T04:40:57.392Z,0.70
2023-03-05T04:43:24.013Z,0.69
2023-03-05T04:45:56.036Z,0.63
2023-03-05T04:48:22.871Z,0.53
2023-03-05T04:50:52.274Z,0.58
2023-03-05T04:53:18.896Z,0.55
2023-03-05T04:55:55.102Z,0.53
2023-03-05T04:58:26.392Z,0.46
2023-03-05T05:00:53.066Z,0.48
2023-03-05T05:03:25.662Z,0.55
2023-03-05T05:05:59.333Z,0.57
2023-03-05T05:08:26.248Z,0.59
2023-03-05T05:11:01.908Z,0.53
2023-03-05T05:13:28.771Z,0.61
2023-03-05T05:15:56.200Z,0.62
2023-03-05T05:18:23.857Z,0.65
2023-03-05T05:20:50.561Z,0.69
2023-03-05T05:23:19.574Z,0.69
2023-03-05T05:25:49.224Z,0.69
2023-03-05T05:28:15.812Z,0.74
2023-03-05T05:30:47.939Z,0.67
2023-03-05T05:33:18.725Z,0.55
2023-03-05T05:35:45.510Z,0.49
2023-03-05T05:38:15.056Z,0.61
2023-03-05T05:40:42.160Z,0.69
2023-03-05T05:43:12.193Z,0.67
2023-03-05T05:45:39.170Z,0.60
2023-03-05T05:48:07.097Z,0.68
2023-03-05T05:50:33.820Z,0.66
2023-03-05T05:53:04.963Z,0.65
2023-03-05T05:55:31.604Z,0.73
2023-03-05T05:58:05.147Z,0.75
2023-03-05T06:00:31.772Z,0.74
2023-03-05T06:02:58.439Z,0.77
2023-03-05T06:05:25.582Z,0.78
2023-03-05T06:07:52.185Z,0.87
2023-03-05T06:10:18.951Z,0.87
2023-03-05T06:12:46.358Z,0.89
2023-03-05T06:15:13.432Z,0.94
2023-03-05T06:17:40.091Z,0.95
2023-03-05T06:20:07.746Z,1.11
2023-03-05T06:22:39.527Z,1.06
2023-03-05T06:25:08.960Z,1.07
2023-03-05T06:27:40.229Z,1.11
2023-03-05T06:30:07.718Z,1.18
2023-03-05T06:32:38.014Z,1.16
2023-03-05T06:35:09.716Z,1.21
2023-03-05T06:37:36.395Z,1.22
2023-03-05T06:40:04.475Z,1.30
2023-03-05T06:42:31.105Z,1.32
2023-03-05T06:44:57.794Z,1.31
2023-03-05T06:47:24.444Z,1.39
2023-03-05T06:49:51.091Z,1.40
2023-03-05T06:52:17.740Z,1.43
2023-03-05T06:54:44.497Z,1.50
2023-03-05T06:57:19.955Z,1.57
2023-03-05T06:59:46.548Z,1.62
2023-03-05T07:02:13.863Z,1.69
2023-03-05T07:04:46.774Z,1.71
2023-03-05T07:07:13.458Z,1.67
2023-03-05T07:09:43.018Z,1.69
2023-03-05T07:12:11.918Z,1.75
2023-03-05T07:14:39.411Z,1.79
2023-03-05T07:17:07.116Z,1.72
2023-03-05T07:19:33.983Z,1.72
2023-03-05T07:22:00.659Z,1.85
2023-03-05T07:24:30.164Z,1.94
2023-03-05T07:26:57.652Z,1.96
2023-03-05T07:29:26.497Z,1.92
2023-03-05T07:31:54.109Z,1.90
2023-03-05T07:34:21.844Z,2.03
2023-03-05T07:36:52.744Z,1.95
2023-03-05T07:39:19.520Z,1.99
2023-03-05T07:41:47.809Z,1.98
2023-03-05T07:44:14.681Z,1.95
2023-03-05T07:46:41.960Z,2.04
2023-03-05T07:49:08.856Z,2.02
2023-03-05T07:51:35.577Z,2.17
2023-03-05T07:54:02.593Z,2.30
2023-03-05T07:56:32.201Z,2.39
2023-03-05T07:59:00.317Z,2.35
2023-03-05T08:01:27.369Z,2.39
2023-03-05T08:03:54.276Z,2.32
2023-03-05T08:06:20.951Z,2.31
2023-03-05T08:08:47.762Z,2.39
2023-03-05T08:11:18.646Z,2.40
2023-03-05T08:13:45.534Z,2.57
2023-03-05T08:16:24.421Z,2.60
2023-03-05T08:18:53.712Z,2.57
2023-03-05T08:21:23.152Z,2.58
2023-03-05T08:23:50.188Z,3.00
2023-03-05T08:26:22.737Z,3.36
2023-03-05T08:28:49.651Z,3.15
2023-03-05T08:31:18.568Z,3.00
2023-03-05T08:33:45.879Z,2.97
2023-03-05T08:36:13.343Z,3.28
2023-03-05T08:38:44.469Z,4.04
2023-03-05T08:41:11.172Z,4.19
2023-03-05T08:43:37.874Z,3.79
2023-03-05T08:46:04.899Z,4.00
2023-03-05T08:48:32.430Z,4.22
2023-03-05T08:51:12.811Z,4.04
2023-03-05T08:53:39.814Z,3.94
2023-03-05T08:56:09.795Z,4.06
2023-03-05T08:58:36.922Z,4.00
2023-03-05T09:01:04.100Z,4.11
2023-03-05T09:03:30.965Z,4.03
2023-03-05T09:06:02.506Z,3.52
2023-03-05T09:08:29.808Z,3.55
2023-03-05T09:10:57.309Z,3.76
2023-03-05T09:13:24.209Z,3.84
2023-03-05T09:15:57.849Z,4.31
2023-03-05T09:18:24.675Z,3.93
2023-03-05T09:20:51.338Z,4.29
2023-03-05T09:23:24.284Z,5.02
2023-03-05T09:25:51.252Z,5.12
2023-03-05T09:28:17.929Z,4.97
2023-03-05T09:30:44.645Z,4.43
2023-03-05T09:33:15.283Z,4.30
2023-03-05T09:35:41.946Z,3.91
2023-03-05T09:38:08.684Z,3.63
2023-03-05T09:40:49.297Z,3.40
2023-03-05T09:43:42.146Z,3.37
2023-03-05T09:46:27.311Z,3.11
2023-03-05T09:49:10.534Z,3.16
2023-03-05T09:51:40.525Z,3.07
2023-03-05T09:54:17.548Z,3.16
2023-03-05T09:57:05.594Z,3.23
2023-03-05T09:59:57.847Z,3.20
2023-03-05T10:02:37.595Z,3.31
2023-03-05T10:05:18.156Z,3.63
2023-03-05T10:07:49.872Z,4.22
2023-03-05T10:10:46.287Z,4.42
2023-03-05T10:13:38.140Z,4.09
2023-03-05T10:16:31.137Z,4.09
2023-03-05T10:19:28.168Z,3.75
2023-03-05T10:22:20.849Z,3.52
2023-03-05T10:24:56.238Z,3.44
2023-03-05T10:27:38.056Z,3.63
2023-03-05T10:30:26.862Z,3.57
2023-03-05T10:33:03.282Z,3.63
2023-03-05T10:35:32.927Z,3.71
2023-03-05T10:38:14.307Z,3.61
2023-03-05T10:40:44.626Z,3.49
2023-03-05T10:43:36.741Z,3.47
2023-03-05T10:46:04.779Z,3.39
2023-03-05T10:48:37.858Z,3.31
2023-03-05T10:51:16.279Z,3.04
2023-03-05T10:53:55.318Z,3.01
2023-03-05T10:56:24.354Z,3.02
2023-03-05T10:58:52.837Z,3.01
2023-03-05T11:01:24.313Z,3.05
2023-03-05T11:03:58.705Z,3.26
2023-03-05T11:06:34.142Z,3.49
2023-03-05T11:09:21.802Z,3.45
2023-03-05T11:12:16.224Z,3.31
2023-03-05T11:15:12.420Z,3.18
2023-03-05T11:17:58.964Z,2.85
2023-03-05T11:20:30.894Z,2.88
2023-03-05T11:23:12.995Z,2.83
2023-03-05T11:25:57.252Z,2.77
2023-03-05T11:28:41.634Z,2.75
2023-03-05T11:31:20.868Z,2.75
2023-03-05T11:34:02.547Z,2.93
2023-03-05T11:36:36.031Z,2.90
2023-03-05T11:39:08.305Z,3.13
2023-03-05T11:41:42.388Z,3.00
2023-03-05T11:44:52.791Z,3.10
2023-03-05T11:47:19.461Z,3.07
2023-03-05T11:49:49.204Z,3.00
2023-03-05T11:52:25.226Z,3.09
2023-03-05T11:54:54.932Z,3.10
2023-03-05T11:57:24.820Z,3.01
2023-03-05T11:59:55.328Z,2.91
2023-03-05T12:02:27.982Z,2.98
2023-03-05T12:04:56.146Z,3.23
2023-03-05T12:07:35.009Z,3.40
2023-03-05T12:10:02.342Z,3.45
2023-03-05T12:12:51.426Z,3.25
2023-03-05T12:15:18.012Z,3.31
2023-03-05T12:18:13.208Z,3.28
2023-03-05T12:20:55.771Z,3.27
2023-03-05T12:23:23.078Z,3.15
2023-03-05T12:25:56.581Z,3.00
2023-03-05T12:28:29.225Z,2.83
2023-03-05T12:31:20.902Z,2.51
2023-03-05T12:33:47.646Z,2.59
2023-03-05T12:36:33.127Z,2.57
2023-03-05T12:39:02.115Z,2.60
2023-03-05T12:41:33.066Z,3.03
2023-03-05T12:44:10.591Z,3.51
2023-03-05T12:46:44.826Z,4.09
2023-03-05T12:49:21.282Z,3.98
2023-03-05T12:51:56.856Z,4.32
2023-03-05T12:54:42.079Z,4.18
2023-03-05T12:57:26.677Z,4.07
2023-03-05T13:00:00.817Z,4.19
2023-03-05T13:02:31.392Z,3.95
2023-03-05T13:05:02.599Z,4.02
2023-03-05T13:07:29.321Z,4.12
2023-03-05T13:10:00.118Z,4.26
2023-03-05T13:12:29.073Z,4.16
2023-03-05T13:15:02.296Z,4.12
2023-03-05T13:17:33.800Z,3.99
2023-03-05T13:20:02.309Z,3.98
2023-03-05T13:22:29.165Z,3.80
2023-03-05T13:25:17.167Z,3.74
2023-03-05T13:27:43.999Z,3.62
2023-03-05T13:30:22.969Z,3.50
2023-03-05T13:32:52.190Z,3.62
2023-03-05T13:35:23.736Z,4.00
2023-03-05T13:37:50.670Z,3.92
2023-03-05T13:40:25.082Z,4.02
2023-03-05T13:42:53.566Z,4.17
2023-03-05T13:45:23.089Z,4.00
2023-03-05T13:48:07.891Z,3.90
2023-03-05T13:50:35.481Z,3.87
2023-03-05T13:53:39.867Z,3.90
2023-03-05T13:56:12.753Z,3.73
2023-03-05T13:58:55.152Z,3.98
2023-03-05T14:01:56.120Z,4.00
2023-03-05T14:04:29.413Z,3.85
2023-03-05T14:07:04.647Z,3.77
2023-03-05T14:09:56.753Z,3.98
2023-03-05T14:12:37.184Z,4.01
2023-03-05T14:15:20.994Z,3.77
2023-03-05T14:17:47.741Z,3.99
2023-03-05T14:20:14.739Z,4.05
2023-03-05T14:22:48.208Z,4.12
2023-03-05T14:25:42.573Z,4.12
2023-03-05T14:28:18.133Z,3.76
2023-03-05T14:30:47.235Z,3.90
2023-03-05T14:33:15.125Z,3.92
2023-03-05T14:35:48.939Z,3.65
2023-03-05T14:38:23.865Z,3.77
2023-03-05T14:40:50.965Z,3.77
2023-03-05T14:43:17.682Z,3.68
2023-03-05T14:45:44.819Z,3.68
2023-03-05T14:48:13.954Z,3.67
2023-03-05T14:50:56.778Z,3.55
2023-03-05T14:53:31.638Z,3.39
2023-03-05T14:55:58.272Z,3.23
2023-03-05T14:58:28.788Z,3.25
2023-03-05T15:00:56.908Z,3.16
2023-03-05T15:03:24.293Z,3.11
2023-03-05T15:05:54.508Z,3.07
2023-03-05T15:08:30.298Z,2.96
2023-03-05T15:10:57.809Z,2.91
2023-03-05T15:13:30.441Z,2.83
2023-03-05T15:15:57.411Z,3.03
2023-03-05T15:18:24.055Z,2.95
2023-03-05T15:20:55.220Z,2.85
2023-03-05T15:23:21.866Z,2.89
2023-03-05T15:25:48.649Z,2.87
2023-03-05T15:28:15.879Z,2.77
2023-03-05T15:30:45.850Z,2.71
2023-03-05T15:33:15.127Z,2.84
2023-03-05T15:35:44.767Z,2.85
2023-03-05T15:38:11.630Z,2.75
2023-03-05T15:40:38.276Z,2.69
2023-03-05T15:43:04.905Z,2.82
2023-03-05T15:45:31.606Z,2.87
2023-03-05T15:47:58.890Z,2.68
2023-03-05T15:50:25.577Z,2.61
2023-03-05T15:52:52.433Z,2.68
2023-03-05T15:55:19.201Z,2.67
2023-03-05T15:57:48.862Z,2.74
2023-03-05T16:00:18.918Z,2.80
2023-03-05T16:02:45.585Z,2.84
2023-03-05T16:05:12.320Z,2.65
2023-03-05T16:07:42.090Z,2.74
2023-03-05T16:10:12.151Z,2.65
2023-03-05T16:12:41.203Z,2.49
2023-03-05T16:15:10.221Z,2.56
2023-03-05T16:17:37.492Z,2.49
2023-03-05T16:20:05.236Z,2.55
2023-03-05T16:22:32.688Z,2.53
2023-03-05T16:25:01.358Z,2.62
2023-03-05T16:27:28.500Z,2.64
2023-03-05T16:29:55.250Z,2.59
2023-03-05T16:32:21.951Z,2.48
2023-03-05T16:34:48.581Z,2.35
2023-03-05T16:37:21.517Z,2.44
2023-03-05T16:39:48.763Z,2.25
2023-03-05T16:42:16.212Z,2.27
2023-03-05T16:44:43.994Z,2.16
2023-03-05T16:47:12.368Z,2.15
2023-03-05T16:49:39.824Z,2.18
2023-03-05T16:52:18.441Z,2.05
2023-03-05T16:54:46.945Z,1.87
2023-03-05T16:57:13.999Z,1.92
2023-03-05T16:59:41.000Z,1.92
2023-03-05T17:02:08.154Z,1.93
2023-03-05T17:04:35.495Z,1.86
2023-03-05T17:07:04.228Z,1.84
2023-03-05T17:09:31.023Z,1.82
2023-03-05T17:11:57.679Z,1.77
2023-03-05T17:14:24.421Z,1.74
2023-03-05T17:16:51.225Z,1.73
2023-03-05T17:19:17.916Z,1.68
2023-03-05T17:21:45.035Z,1.65
2023-03-05T17:24:12.070Z,1.63
2023-03-05T17:26:38.813Z,1.61
2023-03-05T17:29:06.496Z,1.65
2023-03-05T17:31:34.149Z,1.65
2023-03-05T17:34:01.017Z,1.60
2023-03-05T17:36:27.748Z,1.61
2023-03-05T17:38:57.194Z,1.62
2023-03-05T17:41:24.319Z,1.60
2023-03-05T17:43:52.416Z,1.57
2023-03-05T17:46:19.094Z,1.58
2023-03-05T17:48:46.291Z,1.55
2023-03-05T17:51:14.242Z,1.52
2023-03-05T17:53:44.580Z,1.50
2023-03-05T17:56:23.414Z,1.41
2023-03-05T17:58:50.888Z,1.35
2023-03-05T18:01:29.618Z,1.25
2023-03-05T18:03:57.047Z,1.17
2023-03-05T18:06:24.805Z,1.09
2023-03-05T18:08:51.962Z,1.01
2023-03-05T18:11:19.245Z,0.95
2023-03-05T18:13:45.909Z,0.91
2023-03-05T18:16:16.886Z,0.86
2023-03-05T18:18:44.752Z,0.74
2023-03-05T18:21:11.507Z,0.68
2023-03-05T18:23:38.150Z,0.63
2023-03-05T18:26:07.860Z,0.57
2023-03-05T18:28:34.548Z,0.53
2023-03-05T18:33:33.746Z,0.51
2023-03-05T18:36:00.389Z,0.51
2023-03-05T18:38:29.619Z,0.52
2023-03-05T18:40:57.139Z,0.51
2023-03-05T18:43:24.541Z,0.54
2023-03-05T18:45:53.101Z,0.54
2023-03-05T18:48:23.012Z,0.52
2023-03-05T18:50:54.068Z,0.50
2023-03-05T18:53:21.901Z,0.52
2023-03-05T18:55:52.716Z,0.51
2023-03-05T18:58:19.458Z,0.51
2023-03-05T19:00:47.712Z,0.51
2023-03-05T19:03:15.806Z,0.49
2023-03-05T19:05:42.604Z,0.47
2023-03-05T19:08:17.982Z,0.42
2023-03-05T19:10:44.768Z,0.42
2023-03-05T19:13:28.830Z,0.44
2023-03-05T19:15:56.438Z,0.40
2023-03-05T19:18:33.699Z,0.38
2023-03-05T19:21:00.351Z,0.33
2023-03-05T19:23:27.201Z,0.28
2023-03-05T19:25:53.916Z,0.26
2023-03-05T19:28:21.328Z,0.25
2023-03-05T19:30:50.683Z,0.22
2023-03-05T19:33:17.401Z,0.22
2023-03-05T19:35:44.288Z,0.22
2023-03-05T19:38:10.902Z,0.22
2023-03-05T19:40:42.656Z,0.23
2023-03-05T19:43:09.386Z,0.22
2023-03-05T19:45:36.060Z,0.24
2023-03-05T19:50:34.775Z,0.27
2023-03-05T19:53:01.761Z,0.32
2023-03-05T19:55:28.681Z,0.36
2023-03-05T19:57:55.522Z,0.38
2023-03-05T20:00:22.593Z,0.40
2023-03-05T20:02:49.239Z,0.43
2023-03-05T20:05:23.105Z,0.44
2023-03-05T20:07:49.768Z,0.44
2023-03-05T20:10:16.405Z,0.41
2023-03-05T20:12:44.145Z,0.43
2023-03-05T20:15:11.109Z,0.42
2023-03-05T20:17:37.828Z,0.41
2023-03-05T20:20:05.035Z,0.43
2023-03-05T20:22:31.659Z,0.43
2023-03-05T20:24:58.332Z,0.44
2023-03-05T20:27:28.357Z,0.39
2023-03-05T20:29:55.090Z,0.44
2023-03-05T20:32:21.731Z,0.46
2023-03-05T20:34:51.056Z,0.46
2023-03-05T20:37:18.004Z,0.45
2023-03-05T20:39:44.727Z,0.46
2023-03-05T20:42:11.407Z,0.47
2023-03-05T20:44:44.049Z,0.45
2023-03-05T20:47:26.137Z,0.45
2023-03-05T20:49:56.054Z,0.44
2023-03-05T20:52:22.797Z,0.44
2023-03-05T20:54:49.459Z,0.44
2023-03-05T20:57:16.099Z,0.47
2023-03-05T20:59:45.646Z,0.48
2023-03-05T21:02:12.642Z,0.49
2023-03-05T21:04:39.325Z,0.52
2023-03-05T21:07:10.246Z,0.55
2023-03-05T21:09:36.931Z,0.55
2023-03-05T21:12:03.789Z,0.58
2023-03-05T21:14:36.263Z,0.60
2023-03-05T21:17:03.131Z,0.61
2023-03-05T21:19:33.748Z,0.63
2023-03-05T21:22:00.651Z,0.64
2023-03-05T21:24:39.881Z,0.64
2023-03-05T21:27:12.338Z,0.63
2023-03-05T21:29:38.947Z,0.64
2023-03-05T21:32:05.738Z,0.64
2023-03-05T21:34:32.436Z,0.65
2023-03-05T21:37:05.240Z,0.65
2023-03-05T21:39:31.888Z,0.64
2023-03-05T21:41:59.539Z,0.60
2023-03-05T21:44:26.771Z,0.59
2023-03-05T21:46:53.408Z,0.61
2023-03-05T21:49:20.054Z,0.60
2023-03-05T21:52:05.995Z,0.56
2023-03-05T21:54:32.712Z,0.56
2023-03-05T21:56:59.452Z,0.54
2023-03-05T21:59:28.962Z,0.54
2023-03-05T22:01:56.124Z,0.51
2023-03-05T22:04:22.769Z,0.53
2023-03-05T22:06:49.500Z,0.54
2023-03-05T22:09:16.154Z,0.55
2023-03-05T22:11:43.175Z,0.51
2023-03-05T22:14:11.439Z,0.49
2023-03-05T22:16:38.275Z,0.49
2023-03-05T22:19:05.674Z,0.51
2023-03-05T22:21:35.901Z,0.51
2023-03-05T22:24:02.603Z,0.50
2023-03-05T22:26:38.459Z,0.49
2023-03-05T22:29:11.472Z,0.47
2023-03-05T22:31:40.756Z,0.47
2023-03-05T22:34:07.439Z,0.44
2023-03-05T22:36:34.118Z,0.46
2023-03-05T22:39:00.852Z,0.47
2023-03-05T22:41:30.742Z,0.44
2023-03-05T22:43:57.441Z,0.47
2023-03-05T22:46:27.175Z,0.45
2023-03-05T22:48:54.160Z,0.44
2023-03-05T22:51:29.539Z,0.42
2023-03-05T22:53:56.558Z,0.41
2023-03-05T22:56:23.304Z,0.39
2023-03-05T22:58:50.024Z,0.37
2023-03-05T23:01:24.500Z,0.31
2023-03-05T23:03:59.357Z,0.31
2023-03-05T23:06:26.016Z,0.28
2023-03-05T23:08:53.518Z,0.25
2023-03-05T23:11:20.182Z,0.26
2023-03-05T23:13:46.829Z,0.24
2023-03-05T23:16:13.497Z,0.26
2023-03-05T23:18:40.708Z,0.24
2023-03-05T23:21:07.315Z,0.20
2023-03-05T23:23:33.944Z,0.21
2023-03-05T23:26:03.511Z,0.20
2023-03-05T23:28:30.425Z,0.19
2023-03-05T23:30:58.210Z,0.20
2023-03-05T23:33:28.813Z,0.21
2023-03-05T23:36:00.043Z,0.23
2023-03-05T23:38:33.491Z,0.20
2023-03-05T23:41:03.749Z,0.20
2023-03-05T23:43:31.207Z,0.21
2023-03-05T23:45:58.054Z,0.25
2023-03-05T23:48:26.529Z,0.26
2023-03-05T23:50:53.402Z,0.28
2023-03-05T23:53:33.407Z,0.29
2023-03-05T23:56:00.154Z,0.27
2023-03-05T23:58:26.828Z,0.27
